sensor_id;sensor_type;location;lat;lon;timestamp;P1;durP1;ratioP1;P2;durP2;ratioP2
25331;SDS011;13284;52.748;13.452;2023-02-23T00:01:53;14.40;;;8.33;;
25331;SDS011;13284;52.748;13.452;2023-02-23T00:04:20;15.20;;;9.13;;
25331;SDS011;13284;52.748;13.452;2023-02-23T00:06:47;18.70;;;9.00;;
25331;SDS011;13284;52.748;13.452;2023-02-23T00:09:15;16.20;;;9.70;;
25331;SDS011;13284;52.748;13.452;2023-02-23T00:11:49;14.53;;;8.17;;
25331;SDS011;13284;52.748;13.452;2023-02-23T00:14:24;22.87;;;8.87;;
25331;SDS011;13284;52.748;13.452;2023-02-23T00:16:52;19.40;;;9.37;;
25331;SDS011;13284;52.748;13.452;2023-02-23T00:19:18;15.10;;;8.57;;
25331;SDS011;13284;52.748;13.452;2023-02-23T00:21:44;17.13;;;8.53;;
25331;SDS011;13284;52.748;13.452;2023-02-23T00:24:11;19.40;;;8.60;;
25331;SDS011;13284;52.748;13.452;2023-02-23T00:26:43;14.93;;;7.80;;
25331;SDS011;13284;52.748;13.452;2023-02-23T00:29:13;14.17;;;7.93;;
25331;SDS011;13284;52.748;13.452;2023-02-23T00:31:41;12.97;;;7.87;;
25331;SDS011;13284;52.748;13.452;2023-02-23T00:34:09;13.20;;;8.83;;
25331;SDS011;13284;52.748;13.452;2023-02-23T00:36:37;16.93;;;8.17;;
25331;SDS011;13284;52.748;13.452;2023-02-23T00:39:04;17.50;;;8.77;;
25331;SDS011;13284;52.748;13.452;2023-02-23T00:41:42;12.30;;;8.07;;
25331;SDS011;13284;52.748;13.452;2023-02-23T00:44:08;19.33;;;8.43;;
25331;SDS011;13284;52.748;13.452;2023-02-23T00:46:34;12.83;;;8.13;;
25331;SDS011;13284;52.748;13.452;2023-02-23T00:48:59;18.60;;;9.63;;
25331;SDS011;13284;52.748;13.452;2023-02-23T00:51:25;15.97;;;8.90;;
25331;SDS011;13284;52.748;13.452;2023-02-23T00:53:54;17.95;;;10.30;;
25331;SDS011;13284;52.748;13.452;2023-02-23T00:56:21;17.63;;;9.50;;
25331;SDS011;13284;52.748;13.452;2023-02-23T00:58:47;17.27;;;9.70;;
25331;SDS011;13284;52.748;13.452;2023-02-23T01:01:13;13.43;;;9.37;;
25331;SDS011;13284;52.748;13.452;2023-02-23T01:03:40;20.87;;;9.50;;
25331;SDS011;13284;52.748;13.452;2023-02-23T01:06:07;20.17;;;8.33;;
25331;SDS011;13284;52.748;13.452;2023-02-23T01:08:38;14.90;;;9.23;;
25331;SDS011;13284;52.748;13.452;2023-02-23T01:11:05;18.20;;;10.00;;
25331;SDS011;13284;52.748;13.452;2023-02-23T01:13:34;16.27;;;8.57;;
25331;SDS011;13284;52.748;13.452;2023-02-23T01:16:03;18.10;;;8.50;;
25331;SDS011;13284;52.748;13.452;2023-02-23T01:18:33;18.20;;;9.83;;
25331;SDS011;13284;52.748;13.452;2023-02-23T01:21:00;16.90;;;10.17;;
25331;SDS011;13284;52.748;13.452;2023-02-23T01:23:26;26.00;;;9.30;;
25331;SDS011;13284;52.748;13.452;2023-02-23T01:25:52;20.20;;;10.10;;
25331;SDS011;13284;52.748;13.452;2023-02-23T01:28:17;18.23;;;9.80;;
25331;SDS011;13284;52.748;13.452;2023-02-23T01:30:43;19.70;;;12.07;;
25331;SDS011;13284;52.748;13.452;2023-02-23T01:33:09;19.87;;;9.00;;
25331;SDS011;13284;52.748;13.452;2023-02-23T01:35:36;21.80;;;9.73;;
25331;SDS011;13284;52.748;13.452;2023-02-23T01:38:02;16.43;;;9.00;;
25331;SDS011;13284;52.748;13.452;2023-02-23T01:40:28;17.90;;;8.97;;
25331;SDS011;13284;52.748;13.452;2023-02-23T01:43:05;20.33;;;8.93;;
25331;SDS011;13284;52.748;13.452;2023-02-23T01:45:39;17.80;;;9.30;;
25331;SDS011;13284;52.748;13.452;2023-02-23T01:48:08;17.13;;;9.43;;
25331;SDS011;13284;52.748;13.452;2023-02-23T01:50:39;17.50;;;10.77;;
25331;SDS011;13284;52.748;13.452;2023-02-23T01:53:14;17.30;;;9.70;;
25331;SDS011;13284;52.748;13.452;2023-02-23T01:55:41;17.40;;;9.20;;
25331;SDS011;13284;52.748;13.452;2023-02-23T01:58:09;17.63;;;10.40;;
25331;SDS011;13284;52.748;13.452;2023-02-23T02:00:42;20.83;;;8.90;;
25331;SDS011;13284;52.748;13.452;2023-02-23T02:03:13;17.47;;;9.40;;
25331;SDS011;13284;52.748;13.452;2023-02-23T02:05:42;17.27;;;9.50;;
25331;SDS011;13284;52.748;13.452;2023-02-23T02:08:09;13.57;;;9.67;;
25331;SDS011;13284;52.748;13.452;2023-02-23T02:10:36;17.93;;;10.33;;
25331;SDS011;13284;52.748;13.452;2023-02-23T02:13:05;18.80;;;8.70;;
25331;SDS011;13284;52.748;13.452;2023-02-23T02:15:34;12.53;;;8.40;;
25331;SDS011;13284;52.748;13.452;2023-02-23T02:18:26;19.77;;;10.17;;
25331;SDS011;13284;52.748;13.452;2023-02-23T02:24:16;20.37;;;9.43;;
25331;SDS011;13284;52.748;13.452;2023-02-23T02:27:12;14.40;;;8.90;;
25331;SDS011;13284;52.748;13.452;2023-02-23T02:46:05;14.37;;;8.50;;
25331;SDS011;13284;52.748;13.452;2023-02-23T02:48:50;19.10;;;9.70;;
25331;SDS011;13284;52.748;13.452;2023-02-23T02:51:24;21.70;;;9.37;;
25331;SDS011;13284;52.748;13.452;2023-02-23T02:53:57;13.40;;;8.87;;
25331;SDS011;13284;52.748;13.452;2023-02-23T02:56:28;18.80;;;8.60;;
25331;SDS011;13284;52.748;13.452;2023-02-23T02:58:54;29.80;;;13.10;;
25331;SDS011;13284;52.748;13.452;2023-02-23T03:01:20;19.37;;;8.97;;
25331;SDS011;13284;52.748;13.452;2023-02-23T03:04:23;16.97;;;9.70;;
25331;SDS011;13284;52.748;13.452;2023-02-23T03:07:19;21.00;;;10.07;;
25331;SDS011;13284;52.748;13.452;2023-02-23T03:13:35;21.03;;;10.63;;
25331;SDS011;13284;52.748;13.452;2023-02-23T03:16:30;23.87;;;10.10;;
25331;SDS011;13284;52.748;13.452;2023-02-23T03:19:26;22.73;;;8.90;;
25331;SDS011;13284;52.748;13.452;2023-02-23T03:22:46;20.47;;;9.17;;
25331;SDS011;13284;52.748;13.452;2023-02-23T03:29:08;19.70;;;9.17;;
25331;SDS011;13284;52.748;13.452;2023-02-23T03:32:00;16.40;;;9.07;;
25331;SDS011;13284;52.748;13.452;2023-02-23T03:37:46;19.97;;;9.53;;
25331;SDS011;13284;52.748;13.452;2023-02-23T03:40:36;18.07;;;9.80;;
25331;SDS011;13284;52.748;13.452;2023-02-23T03:43:25;17.97;;;9.27;;
25331;SDS011;13284;52.748;13.452;2023-02-23T03:46:16;16.70;;;8.33;;
25331;SDS011;13284;52.748;13.452;2023-02-23T03:49:03;22.67;;;9.50;;
25331;SDS011;13284;52.748;13.452;2023-02-23T03:51:50;19.43;;;9.77;;
25331;SDS011;13284;52.748;13.452;2023-02-23T03:54:43;17.90;;;9.63;;
25331;SDS011;13284;52.748;13.452;2023-02-23T03:57:33;17.40;;;10.63;;
25331;SDS011;13284;52.748;13.452;2023-02-23T04:00:23;19.40;;;10.63;;
25331;SDS011;13284;52.748;13.452;2023-02-23T04:03:14;18.60;;;8.37;;
25331;SDS011;13284;52.748;13.452;2023-02-23T04:05:59;16.30;;;11.00;;
25331;SDS011;13284;52.748;13.452;2023-02-23T04:08:44;11.20;;;8.00;;
25331;SDS011;13284;52.748;13.452;2023-02-23T04:11:33;20.23;;;10.60;;
25331;SDS011;13284;52.748;13.452;2023-02-23T04:14:55;18.57;;;9.60;;
25331;SDS011;13284;52.748;13.452;2023-02-23T04:17:28;17.10;;;8.87;;
25331;SDS011;13284;52.748;13.452;2023-02-23T04:19:55;22.07;;;9.27;;
25331;SDS011;13284;52.748;13.452;2023-02-23T04:22:21;17.13;;;8.50;;
25331;SDS011;13284;52.748;13.452;2023-02-23T04:24:47;14.23;;;8.03;;
25331;SDS011;13284;52.748;13.452;2023-02-23T04:27:14;18.80;;;10.10;;
25331;SDS011;13284;52.748;13.452;2023-02-23T04:29:39;18.50;;;10.23;;
25331;SDS011;13284;52.748;13.452;2023-02-23T04:32:06;15.77;;;9.80;;
25331;SDS011;13284;52.748;13.452;2023-02-23T04:34:36;22.10;;;10.20;;
25331;SDS011;13284;52.748;13.452;2023-02-23T04:37:01;14.80;;;8.70;;
25331;SDS011;13284;52.748;13.452;2023-02-23T04:39:27;19.50;;;9.30;;
25331;SDS011;13284;52.748;13.452;2023-02-23T04:41:53;21.03;;;10.07;;
25331;SDS011;13284;52.748;13.452;2023-02-23T04:44:18;14.40;;;9.37;;
25331;SDS011;13284;52.748;13.452;2023-02-23T04:46:44;16.07;;;9.00;;
25331;SDS011;13284;52.748;13.452;2023-02-23T04:49:09;15.07;;;9.20;;
25331;SDS011;13284;52.748;13.452;2023-02-23T04:51:35;17.60;;;9.33;;
25331;SDS011;13284;52.748;13.452;2023-02-23T04:54:01;18.67;;;10.10;;
25331;SDS011;13284;52.748;13.452;2023-02-23T04:56:28;14.37;;;9.37;;
25331;SDS011;13284;52.748;13.452;2023-02-23T04:58:57;15.73;;;9.40;;
25331;SDS011;13284;52.748;13.452;2023-02-23T05:01:24;17.70;;;9.40;;
25331;SDS011;13284;52.748;13.452;2023-02-23T05:03:51;14.83;;;9.43;;
25331;SDS011;13284;52.748;13.452;2023-02-23T05:06:18;18.83;;;12.47;;
25331;SDS011;13284;52.748;13.452;2023-02-23T05:08:43;20.07;;;9.43;;
25331;SDS011;13284;52.748;13.452;2023-02-23T05:11:09;20.77;;;11.00;;
25331;SDS011;13284;52.748;13.452;2023-02-23T05:13:35;20.10;;;9.50;;
25331;SDS011;13284;52.748;13.452;2023-02-23T05:16:01;16.67;;;9.47;;
25331;SDS011;13284;52.748;13.452;2023-02-23T05:18:29;22.20;;;11.10;;
25331;SDS011;13284;52.748;13.452;2023-02-23T05:21:05;19.77;;;9.07;;
25331;SDS011;13284;52.748;13.452;2023-02-23T05:23:33;15.33;;;9.13;;
25331;SDS011;13284;52.748;13.452;2023-02-23T05:26:03;17.70;;;11.17;;
25331;SDS011;13284;52.748;13.452;2023-02-23T05:28:32;16.40;;;8.73;;
25331;SDS011;13284;52.748;13.452;2023-02-23T05:30:59;18.43;;;9.97;;
25331;SDS011;13284;52.748;13.452;2023-02-23T05:33:25;22.30;;;10.80;;
25331;SDS011;13284;52.748;13.452;2023-02-23T05:35:50;14.60;;;9.27;;
25331;SDS011;13284;52.748;13.452;2023-02-23T05:38:16;17.57;;;11.80;;
25331;SDS011;13284;52.748;13.452;2023-02-23T05:40:42;22.27;;;10.03;;
25331;SDS011;13284;52.748;13.452;2023-02-23T05:43:07;22.10;;;9.80;;
25331;SDS011;13284;52.748;13.452;2023-02-23T05:45:33;25.93;;;10.83;;
25331;SDS011;13284;52.748;13.452;2023-02-23T05:47:58;18.83;;;10.00;;
25331;SDS011;13284;52.748;13.452;2023-02-23T05:50:24;22.53;;;9.90;;
25331;SDS011;13284;52.748;13.452;2023-02-23T05:52:50;22.20;;;11.17;;
25331;SDS011;13284;52.748;13.452;2023-02-23T05:55:16;17.27;;;9.60;;
25331;SDS011;13284;52.748;13.452;2023-02-23T05:57:41;17.20;;;11.00;;
25331;SDS011;13284;52.748;13.452;2023-02-23T06:00:08;19.40;;;9.40;;
25331;SDS011;13284;52.748;13.452;2023-02-23T06:02:37;23.73;;;10.23;;
25331;SDS011;13284;52.748;13.452;2023-02-23T06:05:04;17.33;;;11.13;;
25331;SDS011;13284;52.748;13.452;2023-02-23T06:07:32;12.17;;;8.30;;
25331;SDS011;13284;52.748;13.452;2023-02-23T06:09:58;16.40;;;9.33;;
25331;SDS011;13284;52.748;13.452;2023-02-23T06:12:24;22.60;;;11.30;;
25331;SDS011;13284;52.748;13.452;2023-02-23T06:14:49;18.53;;;10.90;;
25331;SDS011;13284;52.748;13.452;2023-02-23T06:17:15;19.67;;;9.80;;
25331;SDS011;13284;52.748;13.452;2023-02-23T06:19:41;17.27;;;9.17;;
25331;SDS011;13284;52.748;13.452;2023-02-23T06:22:06;19.93;;;11.53;;
25331;SDS011;13284;52.748;13.452;2023-02-23T06:24:32;20.03;;;10.33;;
25331;SDS011;13284;52.748;13.452;2023-02-23T06:26:58;18.77;;;10.70;;
25331;SDS011;13284;52.748;13.452;2023-02-23T06:29:25;18.60;;;10.47;;
25331;SDS011;13284;52.748;13.452;2023-02-23T06:31:50;23.67;;;10.07;;
25331;SDS011;13284;52.748;13.452;2023-02-23T06:34:16;18.30;;;10.83;;
25331;SDS011;13284;52.748;13.452;2023-02-23T06:36:42;21.63;;;10.40;;
25331;SDS011;13284;52.748;13.452;2023-02-23T06:39:08;20.50;;;11.07;;
25331;SDS011;13284;52.748;13.452;2023-02-23T06:41:35;14.80;;;9.10;;
25331;SDS011;13284;52.748;13.452;2023-02-23T06:44:00;18.80;;;10.73;;
25331;SDS011;13284;52.748;13.452;2023-02-23T06:46:26;19.73;;;9.70;;
25331;SDS011;13284;52.748;13.452;2023-02-23T06:48:55;19.80;;;10.40;;
25331;SDS011;13284;52.748;13.452;2023-02-23T06:51:21;19.20;;;10.50;;
25331;SDS011;13284;52.748;13.452;2023-02-23T06:53:47;19.03;;;10.30;;
25331;SDS011;13284;52.748;13.452;2023-02-23T06:56:13;24.27;;;11.43;;
25331;SDS011;13284;52.748;13.452;2023-02-23T06:58:41;21.10;;;10.97;;
25331;SDS011;13284;52.748;13.452;2023-02-23T07:01:07;23.20;;;10.70;;
25331;SDS011;13284;52.748;13.452;2023-02-23T07:03:34;21.87;;;10.80;;
25331;SDS011;13284;52.748;13.452;2023-02-23T07:06:00;25.63;;;10.53;;
25331;SDS011;13284;52.748;13.452;2023-02-23T07:08:25;17.80;;;11.93;;
25331;SDS011;13284;52.748;13.452;2023-02-23T07:10:51;13.33;;;8.70;;
25331;SDS011;13284;52.748;13.452;2023-02-23T07:13:16;17.87;;;10.43;;
25331;SDS011;13284;52.748;13.452;2023-02-23T07:15:44;25.10;;;12.40;;
25331;SDS011;13284;52.748;13.452;2023-02-23T07:18:09;26.67;;;12.37;;
25331;SDS011;13284;52.748;13.452;2023-02-23T07:20:35;24.37;;;13.50;;
25331;SDS011;13284;52.748;13.452;2023-02-23T07:23:00;22.23;;;12.40;;
25331;SDS011;13284;52.748;13.452;2023-02-23T07:25:26;24.00;;;13.83;;
25331;SDS011;13284;52.748;13.452;2023-02-23T07:27:52;20.23;;;11.93;;
25331;SDS011;13284;52.748;13.452;2023-02-23T07:30:18;25.90;;;12.03;;
25331;SDS011;13284;52.748;13.452;2023-02-23T07:32:48;19.33;;;10.13;;
25331;SDS011;13284;52.748;13.452;2023-02-23T07:35:15;20.97;;;12.03;;
25331;SDS011;13284;52.748;13.452;2023-02-23T07:37:40;22.63;;;12.00;;
25331;SDS011;13284;52.748;13.452;2023-02-23T07:40:09;24.03;;;12.77;;
25331;SDS011;13284;52.748;13.452;2023-02-23T07:42:37;20.73;;;11.83;;
25331;SDS011;13284;52.748;13.452;2023-02-23T07:45:03;18.90;;;12.10;;
25331;SDS011;13284;52.748;13.452;2023-02-23T07:47:29;17.60;;;11.30;;
25331;SDS011;13284;52.748;13.452;2023-02-23T07:49:58;21.60;;;11.77;;
25331;SDS011;13284;52.748;13.452;2023-02-23T07:52:27;36.70;;;19.73;;
25331;SDS011;13284;52.748;13.452;2023-02-23T07:54:53;20.63;;;13.10;;
25331;SDS011;13284;52.748;13.452;2023-02-23T07:57:19;22.13;;;11.57;;
25331;SDS011;13284;52.748;13.452;2023-02-23T07:59:45;25.63;;;11.90;;
25331;SDS011;13284;52.748;13.452;2023-02-23T08:02:12;24.30;;;12.33;;
25331;SDS011;13284;52.748;13.452;2023-02-23T08:04:38;23.73;;;11.73;;
25331;SDS011;13284;52.748;13.452;2023-02-23T08:07:04;32.73;;;12.63;;
25331;SDS011;13284;52.748;13.452;2023-02-23T08:09:31;27.90;;;13.33;;
25331;SDS011;13284;52.748;13.452;2023-02-23T08:11:59;22.57;;;12.00;;
25331;SDS011;13284;52.748;13.452;2023-02-23T08:14:25;22.40;;;11.73;;
25331;SDS011;13284;52.748;13.452;2023-02-23T08:16:50;18.33;;;11.50;;
25331;SDS011;13284;52.748;13.452;2023-02-23T08:19:16;21.20;;;11.53;;
25331;SDS011;13284;52.748;13.452;2023-02-23T08:21:41;19.93;;;12.13;;
25331;SDS011;13284;52.748;13.452;2023-02-23T08:24:07;23.10;;;12.83;;
25331;SDS011;13284;52.748;13.452;2023-02-23T08:26:36;22.47;;;11.80;;
25331;SDS011;13284;52.748;13.452;2023-02-23T08:29:04;26.87;;;14.17;;
25331;SDS011;13284;52.748;13.452;2023-02-23T08:31:30;26.10;;;14.10;;
25331;SDS011;13284;52.748;13.452;2023-02-23T08:33:55;19.47;;;12.50;;
25331;SDS011;13284;52.748;13.452;2023-02-23T08:36:21;28.60;;;14.50;;
25331;SDS011;13284;52.748;13.452;2023-02-23T08:38:46;27.63;;;14.00;;
25331;SDS011;13284;52.748;13.452;2023-02-23T08:41:12;30.00;;;12.10;;
25331;SDS011;13284;52.748;13.452;2023-02-23T08:43:38;20.80;;;12.23;;
25331;SDS011;13284;52.748;13.452;2023-02-23T08:46:07;28.93;;;13.53;;
25331;SDS011;13284;52.748;13.452;2023-02-23T08:48:32;19.97;;;12.27;;
25331;SDS011;13284;52.748;13.452;2023-02-23T08:50:58;27.27;;;13.20;;
25331;SDS011;13284;52.748;13.452;2023-02-23T08:53:24;31.03;;;17.27;;
25331;SDS011;13284;52.748;13.452;2023-02-23T08:55:59;28.70;;;17.00;;
25331;SDS011;13284;52.748;13.452;2023-02-23T08:58:27;26.33;;;12.17;;
25331;SDS011;13284;52.748;13.452;2023-02-23T09:00:54;26.73;;;13.60;;
25331;SDS011;13284;52.748;13.452;2023-02-23T09:03:20;23.77;;;13.50;;
25331;SDS011;13284;52.748;13.452;2023-02-23T09:05:46;22.57;;;13.17;;
25331;SDS011;13284;52.748;13.452;2023-02-23T09:08:12;22.83;;;13.10;;
25331;SDS011;13284;52.748;13.452;2023-02-23T09:10:39;23.43;;;13.53;;
25331;SDS011;13284;52.748;13.452;2023-02-23T09:13:07;18.93;;;12.07;;
25331;SDS011;13284;52.748;13.452;2023-02-23T09:15:34;22.03;;;12.30;;
25331;SDS011;13284;52.748;13.452;2023-02-23T09:18:00;20.23;;;11.47;;
25331;SDS011;13284;52.748;13.452;2023-02-23T09:20:26;23.10;;;13.77;;
25331;SDS011;13284;52.748;13.452;2023-02-23T09:22:52;24.10;;;14.00;;
25331;SDS011;13284;52.748;13.452;2023-02-23T09:25:18;25.83;;;12.30;;
25331;SDS011;13284;52.748;13.452;2023-02-23T09:27:46;24.37;;;13.00;;
25331;SDS011;13284;52.748;13.452;2023-02-23T09:30:17;20.67;;;12.20;;
25331;SDS011;13284;52.748;13.452;2023-02-23T09:32:44;18.63;;;12.50;;
25331;SDS011;13284;52.748;13.452;2023-02-23T09:35:11;19.33;;;10.73;;
25331;SDS011;13284;52.748;13.452;2023-02-23T09:37:37;22.90;;;13.20;;
25331;SDS011;13284;52.748;13.452;2023-02-23T09:40:02;24.40;;;13.80;;
25331;SDS011;13284;52.748;13.452;2023-02-23T09:48:15;21.73;;;12.40;;
25331;SDS011;13284;52.748;13.452;2023-02-23T09:50:45;24.13;;;14.20;;
25331;SDS011;13284;52.748;13.452;2023-02-23T09:53:34;18.63;;;12.90;;
25331;SDS011;13284;52.748;13.452;2023-02-23T09:56:51;26.60;;;13.80;;
25331;SDS011;13284;52.748;13.452;2023-02-23T09:59:00;25.97;;;15.60;;
25331;SDS011;13284;52.748;13.452;2023-02-23T10:04:06;22.73;;;13.87;;
25331;SDS011;13284;52.748;13.452;2023-02-23T10:06:40;23.40;;;13.23;;
25331;SDS011;13284;52.748;13.452;2023-02-23T10:09:13;23.20;;;14.43;;
25331;SDS011;13284;52.748;13.452;2023-02-23T10:11:50;23.23;;;15.07;;
25331;SDS011;13284;52.748;13.452;2023-02-23T10:17:02;31.27;;;14.50;;
25331;SDS011;13284;52.748;13.452;2023-02-23T10:19:49;25.40;;;14.37;;
25331;SDS011;13284;52.748;13.452;2023-02-23T10:22:24;24.40;;;14.37;;
25331;SDS011;13284;52.748;13.452;2023-02-23T10:25:01;25.97;;;15.07;;
25331;SDS011;13284;52.748;13.452;2023-02-23T10:27:36;24.20;;;14.60;;
25331;SDS011;13284;52.748;13.452;2023-02-23T10:30:13;23.67;;;15.30;;
25331;SDS011;13284;52.748;13.452;2023-02-23T10:35:27;23.80;;;15.00;;
25331;SDS011;13284;52.748;13.452;2023-02-23T10:37:54;29.10;;;15.37;;
25331;SDS011;13284;52.748;13.452;2023-02-23T10:40:22;27.03;;;15.10;;
25331;SDS011;13284;52.748;13.452;2023-02-23T10:42:49;23.73;;;13.97;;
25331;SDS011;13284;52.748;13.452;2023-02-23T10:45:22;26.27;;;15.73;;
25331;SDS011;13284;52.748;13.452;2023-02-23T10:47:54;25.33;;;13.80;;
25331;SDS011;13284;52.748;13.452;2023-02-23T10:50:24;22.50;;;14.23;;
25331;SDS011;13284;52.748;13.452;2023-02-23T10:52:53;27.87;;;14.90;;
25331;SDS011;13284;52.748;13.452;2023-02-23T10:55:28;27.80;;;14.87;;
25331;SDS011;13284;52.748;13.452;2023-02-23T10:58:03;21.20;;;13.73;;
25331;SDS011;13284;52.748;13.452;2023-02-23T11:00:41;22.70;;;13.90;;
25331;SDS011;13284;52.748;13.452;2023-02-23T11:03:17;25.80;;;15.27;;
25331;SDS011;13284;52.748;13.452;2023-02-23T11:05:52;26.07;;;13.97;;
25331;SDS011;13284;52.748;13.452;2023-02-23T11:08:19;25.43;;;16.33;;
25331;SDS011;13284;52.748;13.452;2023-02-23T11:11:02;26.87;;;15.77;;
25331;SDS011;13284;52.748;13.452;2023-02-23T11:13:42;23.43;;;14.80;;
25331;SDS011;13284;52.748;13.452;2023-02-23T11:16:11;24.10;;;16.00;;
25331;SDS011;13284;52.748;13.452;2023-02-23T11:18:39;24.40;;;16.33;;
25331;SDS011;13284;52.748;13.452;2023-02-23T11:21:10;26.80;;;17.73;;
25331;SDS011;13284;52.748;13.452;2023-02-23T11:23:41;24.33;;;15.03;;
25331;SDS011;13284;52.748;13.452;2023-02-23T11:26:18;31.53;;;17.07;;
25331;SDS011;13284;52.748;13.452;2023-02-23T11:28:53;24.70;;;14.17;;
25331;SDS011;13284;52.748;13.452;2023-02-23T11:31:22;25.37;;;15.33;;
25331;SDS011;13284;52.748;13.452;2023-02-23T11:33:54;28.47;;;15.43;;
25331;SDS011;13284;52.748;13.452;2023-02-23T11:38:46;25.90;;;14.90;;
25331;SDS011;13284;52.748;13.452;2023-02-23T11:41:24;21.70;;;14.80;;
25331;SDS011;13284;52.748;13.452;2023-02-23T11:43:50;26.63;;;15.13;;
25331;SDS011;13284;52.748;13.452;2023-02-23T11:46:21;26.03;;;16.23;;
25331;SDS011;13284;52.748;13.452;2023-02-23T11:48:55;26.47;;;14.17;;
25331;SDS011;13284;52.748;13.452;2023-02-23T11:51:31;28.30;;;14.80;;
25331;SDS011;13284;52.748;13.452;2023-02-23T11:53:59;24.47;;;16.00;;
25331;SDS011;13284;52.748;13.452;2023-02-23T11:56:26;24.77;;;15.50;;
25331;SDS011;13284;52.748;13.452;2023-02-23T11:58:56;27.50;;;15.47;;
25331;SDS011;13284;52.748;13.452;2023-02-23T12:06:48;24.60;;;14.83;;
25331;SDS011;13284;52.748;13.452;2023-02-23T12:12:05;24.50;;;13.67;;
25331;SDS011;13284;52.748;13.452;2023-02-23T12:14:42;28.30;;;15.17;;
25331;SDS011;13284;52.748;13.452;2023-02-23T12:17:17;22.53;;;13.70;;
25331;SDS011;13284;52.748;13.452;2023-02-23T12:19:52;21.17;;;13.10;;
25331;SDS011;13284;52.748;13.452;2023-02-23T12:22:24;20.43;;;14.97;;
25331;SDS011;13284;52.748;13.452;2023-02-23T12:25:00;20.57;;;14.30;;
25331;SDS011;13284;52.748;13.452;2023-02-23T12:27:39;21.20;;;12.93;;
25331;SDS011;13284;52.748;13.452;2023-02-23T12:30:11;25.27;;;14.97;;
25331;SDS011;13284;52.748;13.452;2023-02-23T12:32:45;26.03;;;15.10;;
25331;SDS011;13284;52.748;13.452;2023-02-23T12:38:19;22.90;;;15.10;;
25331;SDS011;13284;52.748;13.452;2023-02-23T12:41:00;21.43;;;13.33;;
25331;SDS011;13284;52.748;13.452;2023-02-23T12:46:25;23.83;;;13.93;;
25331;SDS011;13284;52.748;13.452;2023-02-23T12:49:14;20.60;;;14.30;;
25331;SDS011;13284;52.748;13.452;2023-02-23T12:51:52;20.00;;;14.97;;
25331;SDS011;13284;52.748;13.452;2023-02-23T12:54:38;22.40;;;13.40;;
25331;SDS011;13284;52.748;13.452;2023-02-23T13:06:26;21.67;;;13.30;;
25331;SDS011;13284;52.748;13.452;2023-02-23T13:08:55;26.53;;;15.50;;
25331;SDS011;13284;52.748;13.452;2023-02-23T13:16:46;24.30;;;13.97;;
25331;SDS011;13284;52.748;13.452;2023-02-23T13:19:48;21.10;;;13.17;;
25331;SDS011;13284;52.748;13.452;2023-02-23T13:25:18;22.60;;;12.50;;
25331;SDS011;13284;52.748;13.452;2023-02-23T13:27:52;21.80;;;13.50;;
25331;SDS011;13284;52.748;13.452;2023-02-23T13:30:22;22.73;;;13.57;;
25331;SDS011;13284;52.748;13.452;2023-02-23T13:32:48;19.63;;;13.10;;
25331;SDS011;13284;52.748;13.452;2023-02-23T13:35:17;20.50;;;14.67;;
25331;SDS011;13284;52.748;13.452;2023-02-23T13:37:56;21.67;;;13.73;;
25331;SDS011;13284;52.748;13.452;2023-02-23T13:40:42;20.57;;;13.73;;
25331;SDS011;13284;52.748;13.452;2023-02-23T13:43:24;21.70;;;14.40;;
25331;SDS011;13284;52.748;13.452;2023-02-23T13:46:04;23.83;;;14.10;;
25331;SDS011;13284;52.748;13.452;2023-02-23T13:48:59;25.03;;;14.33;;
25331;SDS011;13284;52.748;13.452;2023-02-23T13:51:31;26.80;;;16.00;;
25331;SDS011;13284;52.748;13.452;2023-02-23T13:56:43;22.93;;;15.70;;
25331;SDS011;13284;52.748;13.452;2023-02-23T13:59:16;26.17;;;16.20;;
25331;SDS011;13284;52.748;13.452;2023-02-23T14:02:05;24.53;;;14.70;;
25331;SDS011;13284;52.748;13.452;2023-02-23T14:04:47;23.07;;;14.67;;
25331;SDS011;13284;52.748;13.452;2023-02-23T14:07:22;26.33;;;16.97;;
25331;SDS011;13284;52.748;13.452;2023-02-23T14:09:53;30.10;;;17.30;;
25331;SDS011;13284;52.748;13.452;2023-02-23T14:12:39;29.43;;;17.00;;
25331;SDS011;13284;52.748;13.452;2023-02-23T14:17:54;25.50;;;16.57;;
25331;SDS011;13284;52.748;13.452;2023-02-23T14:20:35;26.23;;;15.53;;
25331;SDS011;13284;52.748;13.452;2023-02-23T14:25:44;27.70;;;16.83;;
25331;SDS011;13284;52.748;13.452;2023-02-23T14:31:21;22.57;;;15.77;;
25331;SDS011;13284;52.748;13.452;2023-02-23T14:39:07;26.23;;;16.17;;
25331;SDS011;13284;52.748;13.452;2023-02-23T14:42:16;29.60;;;18.10;;
25331;SDS011;13284;52.748;13.452;2023-02-23T14:44:39;33.63;;;20.47;;
25331;SDS011;13284;52.748;13.452;2023-02-23T14:47:07;35.10;;;19.10;;
25331;SDS011;13284;52.748;13.452;2023-02-23T14:49:41;35.87;;;21.23;;
25331;SDS011;13284;52.748;13.452;2023-02-23T14:52:12;31.70;;;19.17;;
25331;SDS011;13284;52.748;13.452;2023-02-23T14:54:44;37.77;;;21.40;;
25331;SDS011;13284;52.748;13.452;2023-02-23T14:57:18;33.20;;;20.07;;
25331;SDS011;13284;52.748;13.452;2023-02-23T14:59:55;32.13;;;18.87;;
25331;SDS011;13284;52.748;13.452;2023-02-23T15:02:24;29.90;;;19.37;;
25331;SDS011;13284;52.748;13.452;2023-02-23T15:04:51;36.33;;;19.77;;
25331;SDS011;13284;52.748;13.452;2023-02-23T15:07:38;33.17;;;20.00;;
25331;SDS011;13284;52.748;13.452;2023-02-23T15:10:14;32.40;;;17.87;;
25331;SDS011;13284;52.748;13.452;2023-02-23T15:12:44;32.90;;;19.77;;
25331;SDS011;13284;52.748;13.452;2023-02-23T15:15:18;30.60;;;18.53;;
25331;SDS011;13284;52.748;13.452;2023-02-23T15:17:47;34.37;;;19.03;;
25331;SDS011;13284;52.748;13.452;2023-02-23T15:20:14;30.50;;;18.20;;
25331;SDS011;13284;52.748;13.452;2023-02-23T15:22:43;33.87;;;20.83;;
25331;SDS011;13284;52.748;13.452;2023-02-23T15:25:14;38.07;;;19.90;;
25331;SDS011;13284;52.748;13.452;2023-02-23T15:27:42;35.43;;;19.77;;
25331;SDS011;13284;52.748;13.452;2023-02-23T15:30:28;36.33;;;23.07;;
25331;SDS011;13284;52.748;13.452;2023-02-23T15:33:03;32.03;;;20.77;;
25331;SDS011;13284;52.748;13.452;2023-02-23T15:38:32;33.60;;;20.67;;
25331;SDS011;13284;52.748;13.452;2023-02-23T15:41:03;35.87;;;19.43;;
25331;SDS011;13284;52.748;13.452;2023-02-23T15:43:31;36.00;;;20.87;;
25331;SDS011;13284;52.748;13.452;2023-02-23T15:45:59;32.10;;;18.83;;
25331;SDS011;13284;52.748;13.452;2023-02-23T15:49:04;38.73;;;20.33;;
25331;SDS011;13284;52.748;13.452;2023-02-23T15:56:46;31.57;;;19.53;;
25331;SDS011;13284;52.748;13.452;2023-02-23T15:59:33;32.37;;;19.23;;
25331;SDS011;13284;52.748;13.452;2023-02-23T16:02:00;29.53;;;18.00;;
25331;SDS011;13284;52.748;13.452;2023-02-23T16:04:31;34.03;;;20.50;;
25331;SDS011;13284;52.748;13.452;2023-02-23T16:07:08;33.93;;;20.03;;
25331;SDS011;13284;52.748;13.452;2023-02-23T16:10:03;33.87;;;20.93;;
25331;SDS011;13284;52.748;13.452;2023-02-23T16:12:43;36.43;;;19.93;;
25331;SDS011;13284;52.748;13.452;2023-02-23T16:18:12;36.13;;;19.27;;
25331;SDS011;13284;52.748;13.452;2023-02-23T16:20:55;33.40;;;17.57;;
25331;SDS011;13284;52.748;13.452;2023-02-23T16:23:39;33.20;;;21.20;;
25331;SDS011;13284;52.748;13.452;2023-02-23T16:26:09;34.67;;;21.13;;